createdAt,value
2018-06-10T00:01:46.514Z,22.70
2018-06-10T00:04:14.820Z,22.70
2018-06-10T00:06:43.082Z,22.60
2018-06-10T00:09:11.775Z,22.60
2018-06-10T00:11:40.438Z,22.60
2018-06-10T00:14:09.649Z,22.60
2018-06-10T00:16:37.926Z,22.70
2018-06-10T00:19:06.210Z,22.70
2018-06-10T00:21:34.501Z,22.70
2018-06-10T00:24:02.762Z,22.60
2018-06-10T00:26:31.069Z,22.50
2018-06-10T00:28:59.344Z,22.50
2018-06-10T00:31:27.632Z,22.40
2018-06-10T00:33:55.927Z,22.40
2018-06-10T00:36:24.238Z,22.40
2018-06-10T00:38:52.538Z,22.40
2018-06-10T00:41:20.842Z,22.30
2018-06-10T00:43:48.364Z,22.30
2018-06-10T00:46:16.686Z,22.30
2018-06-10T00:48:44.956Z,22.30
2018-06-10T00:51:13.248Z,22.20
2018-06-10T00:53:41.843Z,22.10
2018-06-10T00:56:10.980Z,22.00
2018-06-10T00:58:39.653Z,21.90
2018-06-10T01:01:07.971Z,21.90
2018-06-10T01:03:36.258Z,21.90
2018-06-10T01:06:05.564Z,21.80
2018-06-10T01:08:33.852Z,21.90
2018-06-10T01:11:02.150Z,21.90
2018-06-10T01:13:30.467Z,22.10
2018-06-10T01:15:58.743Z,22.00
2018-06-10T01:18:26.299Z,22.00
2018-06-10T01:20:54.571Z,21.90
2018-06-10T01:23:22.897Z,21.80
2018-06-10T01:25:51.161Z,21.80
2018-06-10T01:28:19.448Z,21.80
2018-06-10T01:30:47.753Z,21.80
2018-06-10T01:33:16.027Z,21.80
2018-06-10T01:35:44.340Z,21.80
2018-06-10T01:38:12.614Z,21.80
2018-06-10T01:40:41.490Z,21.80
2018-06-10T01:43:10.819Z,21.80
2018-06-10T01:45:39.895Z,21.80
2018-06-10T01:48:08.178Z,21.80
2018-06-10T01:50:36.490Z,21.80
2018-06-10T01:53:04.763Z,21.90
2018-06-10T01:55:33.082Z,21.80
2018-06-10T01:58:01.391Z,21.90
2018-06-10T02:00:29.677Z,21.80
2018-06-10T02:02:57.988Z,21.60
2018-06-10T02:05:26.280Z,21.60
2018-06-10T02:07:54.564Z,21.50
2018-06-10T02:10:22.856Z,21.50
2018-06-10T02:12:51.161Z,21.40
2018-06-10T02:15:19.457Z,21.50
2018-06-10T02:17:47.763Z,21.50
2018-06-10T02:20:16.037Z,21.40
2018-06-10T02:22:44.311Z,21.40
2018-06-10T02:25:11.853Z,21.40
2018-06-10T02:27:40.366Z,21.40
2018-06-10T02:30:08.680Z,21.30
2018-06-10T02:32:36.977Z,21.40
2018-06-10T02:35:05.331Z,21.40
2018-06-10T02:37:33.560Z,21.30
2018-06-10T02:40:01.874Z,21.30
2018-06-10T02:42:30.132Z,21.20
2018-06-10T02:44:58.454Z,21.30
2018-06-10T02:47:25.950Z,21.30
2018-06-10T02:49:54.234Z,20.80
2018-06-10T02:52:22.531Z,20.70
2018-06-10T02:54:50.812Z,20.70
2018-06-10T02:57:19.105Z,20.70
2018-06-10T02:59:47.373Z,20.80
2018-06-10T03:02:15.686Z,20.80
2018-06-10T03:04:43.962Z,20.70
2018-06-10T03:07:12.262Z,20.60
2018-06-10T03:09:41.237Z,20.40
2018-06-10T03:12:10.024Z,20.30
2018-06-10T03:14:38.288Z,20.30
2018-06-10T03:17:05.816Z,20.30
2018-06-10T03:19:34.127Z,20.00
2018-06-10T03:22:02.405Z,20.20
2018-06-10T03:24:29.923Z,20.10
2018-06-10T03:26:58.220Z,20.00
2018-06-10T03:29:26.493Z,20.00
2018-06-10T03:31:54.766Z,19.90
2018-06-10T03:34:23.074Z,19.80
2018-06-10T03:36:51.373Z,19.80
2018-06-10T03:39:19.650Z,19.60
2018-06-10T03:41:47.967Z,19.50
2018-06-10T03:44:15.457Z,19.50
2018-06-10T03:46:43.724Z,19.50
2018-06-10T03:49:12.014Z,19.50
2018-06-10T03:51:41.053Z,19.40
2018-06-10T03:54:10.277Z,19.30
2018-06-10T03:56:38.571Z,19.40
2018-06-10T03:59:06.148Z,19.40
2018-06-10T04:01:34.441Z,19.50
2018-06-10T04:04:02.708Z,19.50
2018-06-10T04:06:31.013Z,19.50
2018-06-10T04:08:59.284Z,19.60
2018-06-10T04:11:27.598Z,19.70
2018-06-10T04:13:55.877Z,19.70
2018-06-10T04:16:24.195Z,19.70
2018-06-10T04:18:51.712Z,19.70
2018-06-10T04:21:20.038Z,19.80
2018-06-10T04:23:48.301Z,19.80
2018-06-10T04:26:16.609Z,19.80
2018-06-10T04:28:44.881Z,19.90
2018-06-10T04:31:13.143Z,19.80
2018-06-10T04:33:41.781Z,19.80
2018-06-10T04:36:10.212Z,19.80
2018-06-10T04:38:38.509Z,19.70
2018-06-10T04:41:06.778Z,19.60
2018-06-10T04:43:35.092Z,19.70
2018-06-10T04:46:02.621Z,19.70
2018-06-10T04:48:30.162Z,19.80
2018-06-10T04:50:58.450Z,19.60
2018-06-10T04:53:26.754Z,19.40
2018-06-10T04:55:55.024Z,19.40
2018-06-10T04:58:23.324Z,19.40
2018-06-10T05:00:51.625Z,19.40
2018-06-10T05:03:19.889Z,19.50
2018-06-10T05:05:48.165Z,19.40
2018-06-10T05:08:16.477Z,19.50
2018-06-10T05:10:44.780Z,19.50
2018-06-10T05:13:13.157Z,19.60
2018-06-10T05:15:41.803Z,19.60
2018-06-10T05:18:10.246Z,19.60
2018-06-10T05:20:38.524Z,19.80
2018-06-10T05:23:06.838Z,19.90
2018-06-10T05:25:35.128Z,19.80
2018-06-10T05:28:03.439Z,19.80
2018-06-10T05:30:31.705Z,19.80
2018-06-10T05:32:59.208Z,19.80
2018-06-10T05:35:27.533Z,20.00
2018-06-10T05:37:55.825Z,20.00
2018-06-10T05:40:24.085Z,19.90
2018-06-10T05:42:55.389Z,19.90
2018-06-10T05:45:23.685Z,20.00
2018-06-10T05:47:51.961Z,20.00
2018-06-10T05:50:20.258Z,20.10
2018-06-10T05:52:47.770Z,20.10
2018-06-10T05:55:16.069Z,20.00
2018-06-10T05:57:44.358Z,20.00
2018-06-10T06:00:12.665Z,20.20
2018-06-10T06:02:41.783Z,20.20
2018-06-10T06:05:10.556Z,20.30
2018-06-10T06:07:39.764Z,20.30
2018-06-10T06:10:08.037Z,20.50
2018-06-10T06:12:36.333Z,20.40
2018-06-10T06:15:04.608Z,20.50
2018-06-10T06:17:32.901Z,20.60
2018-06-10T06:20:01.197Z,20.70
2018-06-10T06:22:28.700Z,20.70
2018-06-10T06:24:56.981Z,20.80
2018-06-10T06:27:25.302Z,20.90
2018-06-10T06:29:53.604Z,20.60
2018-06-10T06:32:21.894Z,20.70
2018-06-10T06:34:50.165Z,20.50
2018-06-10T06:37:18.465Z,20.50
2018-06-10T06:39:46.773Z,20.20
2018-06-10T06:42:14.280Z,20.10
2018-06-10T06:44:42.584Z,20.10
2018-06-10T06:47:10.538Z,20.10
2018-06-10T06:49:39.994Z,19.90
2018-06-10T06:52:08.269Z,19.90
2018-06-10T06:54:36.570Z,20.00
2018-06-10T06:57:04.088Z,19.90
2018-06-10T06:59:32.390Z,20.00
2018-06-10T07:02:00.697Z,19.90
2018-06-10T07:04:28.975Z,19.90
2018-06-10T07:06:57.267Z,19.70
2018-06-10T07:09:25.556Z,19.60
2018-06-10T07:11:53.853Z,19.70
2018-06-10T07:14:22.162Z,19.60
2018-06-10T07:16:50.426Z,19.70
2018-06-10T07:19:18.830Z,19.50
2018-06-10T07:21:47.093Z,19.60
2018-06-10T07:24:14.584Z,19.60
2018-06-10T07:26:42.879Z,19.70
2018-06-10T07:29:11.552Z,19.80
2018-06-10T07:31:40.465Z,20.00
2018-06-10T07:34:08.732Z,19.90
2018-06-10T07:36:36.262Z,19.90
2018-06-10T07:39:04.550Z,20.40
2018-06-10T07:41:32.877Z,20.60
2018-06-10T07:44:01.173Z,20.60
2018-06-10T07:46:29.465Z,20.70
2018-06-10T07:48:57.721Z,20.40
2018-06-10T07:51:26.022Z,20.40
2018-06-10T07:53:54.297Z,20.70
2018-06-10T07:56:22.610Z,20.80
2018-06-10T07:58:50.883Z,20.80
2018-06-10T08:01:19.213Z,20.90
2018-06-10T08:03:47.483Z,20.90
2018-06-10T08:06:15.783Z,20.90
2018-06-10T08:08:44.056Z,20.90
2018-06-10T08:11:12.569Z,21.10
2018-06-10T08:13:41.633Z,21.20
2018-06-10T08:16:10.762Z,21.50
2018-06-10T08:18:39.850Z,21.50
2018-06-10T08:21:08.100Z,21.50
2018-06-10T08:23:36.409Z,21.20
2018-06-10T08:26:03.953Z,21.20
2018-06-10T08:28:32.213Z,21.20
2018-06-10T08:31:00.474Z,21.20
2018-06-10T08:33:28.793Z,21.30
2018-06-10T08:35:56.298Z,21.30
2018-06-10T08:38:24.617Z,21.50
2018-06-10T08:40:52.918Z,21.60
2018-06-10T08:43:21.222Z,21.60
2018-06-10T08:45:49.524Z,21.60
2018-06-10T08:48:17.824Z,21.60
2018-06-10T08:50:46.233Z,21.80
2018-06-10T08:53:14.500Z,22.00
2018-06-10T08:55:42.778Z,22.20
2018-06-10T08:58:11.748Z,22.30
2018-06-10T09:00:40.636Z,22.70
2018-06-10T09:03:09.689Z,22.80
2018-06-10T09:05:37.970Z,22.90
2018-06-10T09:08:06.297Z,23.10
2018-06-10T09:10:34.579Z,23.10
2018-06-10T09:13:02.856Z,23.40
2018-06-10T09:15:30.382Z,23.30
2018-06-10T09:17:57.915Z,23.20
2018-06-10T09:20:26.276Z,23.10
2018-06-10T09:22:54.557Z,22.80
2018-06-10T09:25:22.918Z,22.80
2018-06-10T09:27:51.136Z,22.80
2018-06-10T09:30:19.447Z,22.80
2018-06-10T09:32:47.830Z,22.80
2018-06-10T09:35:16.110Z,23.00
2018-06-10T09:37:44.425Z,23.30
2018-06-10T09:40:12.781Z,23.20
2018-06-10T09:42:42.501Z,23.20
2018-06-10T09:45:12.198Z,23.20
2018-06-10T09:47:41.793Z,23.30
2018-06-10T09:50:11.220Z,23.40
2018-06-10T09:52:40.776Z,23.10
2018-06-10T09:55:09.805Z,23.00
2018-06-10T09:57:38.125Z,23.10
2018-06-10T10:00:06.444Z,23.30
2018-06-10T10:02:34.765Z,23.40
2018-06-10T10:05:02.284Z,23.40
2018-06-10T10:07:30.562Z,23.40
2018-06-10T10:09:58.877Z,23.40
2018-06-10T10:12:27.150Z,23.60
2018-06-10T10:14:55.528Z,23.70
2018-06-10T10:17:23.805Z,23.90
2018-06-10T10:19:52.113Z,24.00
2018-06-10T10:22:20.421Z,24.10
2018-06-10T10:24:48.711Z,24.20
2018-06-10T10:27:16.242Z,24.20
2018-06-10T10:29:44.551Z,24.20
2018-06-10T10:32:12.157Z,24.10
2018-06-10T10:34:41.648Z,24.10
2018-06-10T10:37:10.922Z,24.30
2018-06-10T10:39:40.438Z,24.30
2018-06-10T10:42:08.736Z,24.70
2018-06-10T10:44:37.069Z,24.90
2018-06-10T10:47:05.372Z,24.90
2018-06-10T10:49:33.674Z,24.90
2018-06-10T10:52:01.945Z,24.90
2018-06-10T10:54:30.221Z,24.90
2018-06-10T10:56:58.519Z,25.00
2018-06-10T10:59:26.790Z,25.10
2018-06-10T11:01:55.122Z,25.20
2018-06-10T11:04:23.376Z,25.30
2018-06-10T11:06:51.632Z,24.80
2018-06-10T11:09:19.933Z,24.70
2018-06-10T11:11:48.209Z,24.80
2018-06-10T11:14:16.513Z,24.90
2018-06-10T11:16:44.795Z,24.70
2018-06-10T11:19:13.098Z,25.00
2018-06-10T11:21:42.058Z,24.80
2018-06-10T11:24:13.613Z,24.80
2018-06-10T11:26:41.889Z,24.80
2018-06-10T11:29:11.164Z,24.60
2018-06-10T11:31:40.482Z,24.80
2018-06-10T11:34:08.765Z,24.90
2018-06-10T11:36:37.090Z,24.90
2018-06-10T11:39:05.380Z,24.90
2018-06-10T11:41:33.693Z,25.10
2018-06-10T11:44:01.982Z,25.40
2018-06-10T11:46:30.288Z,25.30
2018-06-10T11:48:57.820Z,25.30
2018-06-10T11:51:26.098Z,25.80
2018-06-10T11:53:54.452Z,25.70
2018-06-10T11:56:22.754Z,25.60
2018-06-10T11:58:51.053Z,25.50
2018-06-10T12:01:19.371Z,25.40
2018-06-10T12:03:47.643Z,25.60
2018-06-10T12:06:15.942Z,25.80
2018-06-10T12:08:44.226Z,25.70
2018-06-10T12:11:12.541Z,25.70
2018-06-10T12:13:42.152Z,25.60
2018-06-10T12:16:11.779Z,25.80
2018-06-10T12:18:40.676Z,25.70
2018-06-10T12:21:09.704Z,25.70
2018-06-10T12:23:39.204Z,25.90
2018-06-10T12:26:07.499Z,25.90
2018-06-10T12:28:35.790Z,25.90
2018-06-10T12:31:04.068Z,26.00
2018-06-10T12:33:32.373Z,25.90
2018-06-10T12:36:00.683Z,26.00
2018-06-10T12:38:28.990Z,25.90
2018-06-10T12:40:57.273Z,26.00
2018-06-10T12:43:25.571Z,26.30
2018-06-10T12:45:53.828Z,26.20
2018-06-10T12:48:25.578Z,26.20
2018-06-10T12:50:53.856Z,26.30
2018-06-10T12:53:22.126Z,26.50
2018-06-10T12:55:50.427Z,26.60
2018-06-10T12:58:18.689Z,26.50
2018-06-10T13:00:46.996Z,26.40
2018-06-10T13:03:16.129Z,26.40
2018-06-10T13:05:45.110Z,26.50
2018-06-10T13:08:13.410Z,26.70
2018-06-10T13:10:42.293Z,26.70
2018-06-10T13:13:10.650Z,26.50
2018-06-10T13:15:38.950Z,26.50
2018-06-10T13:18:07.247Z,26.50
2018-06-10T13:20:35.510Z,26.50
2018-06-10T13:23:03.773Z,26.60
2018-06-10T13:25:32.066Z,26.50
2018-06-10T13:28:00.341Z,26.70
2018-06-10T13:30:28.644Z,26.70
2018-06-10T13:32:56.920Z,26.80
2018-06-10T13:35:25.201Z,27.10
2018-06-10T13:37:53.469Z,27.10
2018-06-10T13:40:21.750Z,27.30
2018-06-10T13:42:50.018Z,27.20
2018-06-10T13:45:18.314Z,27.20
2018-06-10T13:47:46.582Z,27.00
2018-06-10T13:50:16.001Z,26.90
2018-06-10T13:52:45.088Z,27.00
2018-06-10T13:55:13.381Z,27.10
2018-06-10T13:57:42.152Z,27.30
2018-06-10T14:00:11.400Z,27.50
2018-06-10T14:02:39.690Z,27.50
2018-06-10T14:05:07.953Z,27.40
2018-06-10T14:07:36.261Z,27.40
2018-06-10T14:10:04.531Z,27.40
2018-06-10T14:12:32.834Z,27.40
2018-06-10T14:15:01.128Z,27.30
2018-06-10T14:17:29.398Z,27.30
2018-06-10T14:19:57.700Z,26.80
2018-06-10T14:22:25.970Z,26.80
2018-06-10T14:24:54.242Z,26.70
2018-06-10T14:27:22.546Z,26.50
2018-06-10T14:29:50.828Z,26.30
2018-06-10T14:32:19.132Z,26.50
2018-06-10T14:34:47.404Z,26.70
2018-06-10T14:37:16.793Z,26.90
2018-06-10T14:39:45.884Z,27.00
2018-06-10T14:42:14.903Z,27.00
2018-06-10T14:44:43.157Z,27.20
2018-06-10T14:47:12.010Z,27.10
2018-06-10T14:49:40.366Z,27.20
2018-06-10T14:52:08.625Z,27.30
2018-06-10T14:54:36.932Z,27.40
2018-06-10T14:57:05.197Z,27.50
2018-06-10T14:59:33.497Z,27.60
2018-06-10T15:02:01.769Z,27.60
2018-06-10T15:04:30.065Z,27.70
2018-06-10T15:06:58.338Z,27.80
2018-06-10T15:09:26.637Z,27.60
2018-06-10T15:11:54.933Z,27.50
2018-06-10T15:14:23.185Z,27.60
2018-06-10T15:16:51.489Z,27.60
2018-06-10T15:19:20.129Z,27.70
2018-06-10T15:21:48.405Z,27.80
2018-06-10T15:24:16.695Z,27.60
2018-06-10T15:26:46.290Z,27.50
2018-06-10T15:29:15.642Z,27.40
2018-06-10T15:31:43.920Z,27.50
2018-06-10T15:34:12.629Z,27.60
2018-06-10T15:36:42.120Z,27.70
2018-06-10T15:39:11.009Z,27.50
2018-06-10T15:41:39.313Z,27.70
2018-06-10T15:44:07.612Z,27.60
2018-06-10T15:46:35.921Z,27.50
2018-06-10T15:49:04.166Z,27.50
2018-06-10T15:51:32.481Z,27.30
2018-06-10T15:54:00.768Z,27.20
2018-06-10T15:56:29.057Z,27.00
2018-06-10T15:58:57.357Z,26.90
2018-06-10T16:01:25.630Z,27.10
2018-06-10T16:03:53.893Z,27.20
2018-06-10T16:06:22.186Z,27.40
2018-06-10T16:08:50.444Z,27.30
2018-06-10T16:11:18.733Z,27.10
2018-06-10T16:13:47.014Z,26.70
2018-06-10T16:16:16.324Z,26.80
2018-06-10T16:18:44.612Z,26.70
2018-06-10T16:21:12.892Z,26.30
2018-06-10T16:23:41.578Z,26.30
2018-06-10T16:26:09.842Z,26.40
2018-06-10T16:28:38.131Z,26.60
2018-06-10T16:31:06.391Z,26.80
2018-06-10T16:33:34.677Z,26.70
2018-06-10T16:36:02.934Z,26.70
2018-06-10T16:38:31.231Z,26.90
2018-06-10T16:40:59.501Z,26.70
2018-06-10T16:43:27.794Z,26.70
2018-06-10T16:45:56.094Z,26.80
2018-06-10T16:48:24.365Z,26.80
2018-06-10T16:50:52.653Z,26.70
2018-06-10T16:53:20.925Z,26.50
2018-06-10T16:55:48.453Z,26.50
2018-06-10T16:58:16.730Z,26.50
2018-06-10T17:00:45.849Z,26.30
2018-06-10T17:03:14.116Z,26.40
2018-06-10T17:05:42.807Z,26.30
2018-06-10T17:08:12.140Z,26.30
2018-06-10T17:10:40.888Z,26.30
2018-06-10T17:13:09.218Z,26.10
2018-06-10T17:15:37.468Z,25.90
2018-06-10T17:18:05.757Z,26.00
2018-06-10T17:20:34.004Z,26.10
2018-06-10T17:23:02.297Z,26.20
2018-06-10T17:25:30.561Z,26.20
2018-06-10T17:27:58.858Z,26.10
2018-06-10T17:30:27.131Z,26.10
2018-06-10T17:32:55.406Z,26.10
2018-06-10T17:35:23.691Z,26.10
2018-06-10T17:37:51.977Z,26.10
2018-06-10T17:40:20.281Z,26.20
2018-06-10T17:42:48.549Z,26.20
2018-06-10T17:45:16.846Z,26.00
2018-06-10T17:47:45.814Z,25.90
2018-06-10T17:50:14.097Z,26.00
2018-06-10T17:52:42.746Z,25.80
2018-06-10T17:55:11.816Z,25.80
2018-06-10T17:57:39.312Z,25.80
2018-06-10T18:00:07.615Z,25.70
2018-06-10T18:02:35.930Z,25.70
2018-06-10T18:05:04.188Z,25.70
2018-06-10T18:07:32.458Z,25.70
2018-06-10T18:10:00.762Z,25.50
2018-06-10T18:12:29.066Z,25.40
2018-06-10T18:14:57.357Z,25.30
2018-06-10T18:17:25.625Z,25.20
2018-06-10T18:19:53.930Z,25.20
2018-06-10T18:22:22.200Z,25.20
2018-06-10T18:24:50.467Z,25.10
2018-06-10T18:27:17.987Z,25.10
2018-06-10T18:29:47.588Z,24.90
2018-06-10T18:32:16.106Z,24.90
2018-06-10T18:34:44.819Z,24.70
2018-06-10T18:37:13.098Z,24.80
2018-06-10T18:39:41.390Z,24.70
2018-06-10T18:42:09.697Z,24.70
2018-06-10T18:44:38.008Z,24.70
2018-06-10T18:47:06.298Z,24.50
2018-06-10T18:49:35.495Z,24.40
2018-06-10T18:52:03.762Z,24.40
2018-06-10T18:54:32.053Z,24.40
2018-06-10T18:57:00.326Z,24.30
2018-06-10T18:59:32.161Z,24.20
2018-06-10T19:02:00.429Z,24.10
2018-06-10T19:04:28.729Z,23.90
2018-06-10T19:06:57.007Z,23.90
2018-06-10T19:09:25.294Z,23.90
2018-06-10T19:11:53.590Z,24.00
2018-06-10T19:14:21.126Z,24.00
2018-06-10T19:16:48.672Z,24.00
2018-06-10T19:19:16.937Z,23.90
2018-06-10T19:21:46.294Z,23.90
2018-06-10T19:24:15.585Z,23.80
2018-06-10T19:26:43.876Z,23.80
2018-06-10T19:29:12.864Z,23.90
2018-06-10T19:31:42.189Z,23.70
2018-06-10T19:34:10.856Z,23.70
2018-06-10T19:36:39.166Z,23.60
2018-06-10T19:39:07.429Z,23.60
2018-06-10T19:41:35.692Z,23.50
2018-06-10T19:44:03.982Z,23.50
2018-06-10T19:46:32.251Z,23.60
2018-06-10T19:49:00.532Z,23.50
2018-06-10T19:51:28.793Z,23.50
2018-06-10T19:53:57.089Z,23.30
2018-06-10T19:56:25.344Z,23.30
2018-06-10T19:58:53.638Z,23.30
2018-06-10T20:01:21.959Z,23.30
2018-06-10T20:03:50.232Z,23.20
2018-06-10T20:06:18.510Z,23.30
2018-06-10T20:08:46.831Z,23.20
2018-06-10T20:11:15.929Z,23.30
2018-06-10T20:13:44.988Z,23.20
2018-06-10T20:16:13.258Z,23.10
2018-06-10T20:18:40.804Z,23.10
2018-06-10T20:21:09.069Z,23.10
2018-06-10T20:23:37.341Z,23.00
2018-06-10T20:26:05.649Z,23.00
2018-06-10T20:28:33.944Z,22.80
2018-06-10T20:31:02.212Z,22.80
2018-06-10T20:33:30.690Z,22.70
2018-06-10T20:35:59.225Z,22.70
2018-06-10T20:38:27.537Z,22.80
2018-06-10T20:40:55.841Z,22.60
2018-06-10T20:43:24.161Z,22.60
2018-06-10T20:45:52.420Z,22.60
2018-06-10T20:48:20.692Z,22.60
2018-06-10T20:50:48.995Z,22.60
2018-06-10T20:53:17.266Z,22.40
2018-06-10T20:55:45.561Z,22.50
2018-06-10T20:58:13.821Z,22.40
2018-06-10T21:00:42.829Z,22.30
2018-06-10T21:03:11.985Z,22.20
2018-06-10T21:05:40.870Z,22.20
2018-06-10T21:08:09.147Z,22.20
2018-06-10T21:10:37.410Z,22.10
2018-06-10T21:13:05.710Z,22.00
2018-06-10T21:15:34.015Z,21.90
2018-06-10T21:18:01.536Z,21.90
2018-06-10T21:20:31.718Z,21.70
2018-06-10T21:23:00.015Z,21.80
2018-06-10T21:25:28.324Z,21.70
2018-06-10T21:27:56.597Z,21.60
2018-06-10T21:30:24.897Z,21.50
2018-06-10T21:32:53.185Z,21.30
2018-06-10T21:35:21.514Z,21.40
2018-06-10T21:37:49.786Z,21.30
2018-06-10T21:40:18.092Z,21.40
2018-06-10T21:42:48.917Z,21.30
2018-06-10T21:45:17.180Z,21.40
2018-06-10T21:47:45.479Z,21.40
2018-06-10T21:50:13.746Z,21.40
2018-06-10T21:52:42.764Z,21.50
2018-06-10T21:55:12.377Z,21.40
2018-06-10T21:57:41.532Z,21.30
2018-06-10T22:00:09.821Z,21.30
2018-06-10T22:02:38.112Z,21.20
2018-06-10T22:05:06.405Z,21.10
2018-06-10T22:07:34.806Z,21.00
2018-06-10T22:10:03.081Z,20.90
2018-06-10T22:12:31.354Z,20.70
2018-06-10T22:14:59.650Z,20.60
2018-06-10T22:17:27.929Z,20.60
2018-06-10T22:19:56.235Z,20.60
2018-06-10T22:22:24.534Z,20.50
2018-06-10T22:24:52.837Z,20.50
2018-06-10T22:27:20.332Z,20.50
2018-06-10T22:29:48.603Z,20.50
2018-06-10T22:32:16.904Z,20.30
2018-06-10T22:34:44.405Z,20.30
2018-06-10T22:37:12.715Z,20.30
2018-06-10T22:39:41.801Z,20.20
2018-06-10T22:42:10.093Z,20.10
2018-06-10T22:44:38.363Z,20.10
2018-06-10T22:47:06.657Z,20.10
2018-06-10T22:49:34.921Z,20.20
2018-06-10T22:52:03.225Z,20.10
2018-06-10T22:54:33.433Z,20.10
2018-06-10T22:57:01.730Z,20.10
2018-06-10T22:59:30.014Z,20.10
2018-06-10T23:01:58.286Z,20.10
2018-06-10T23:04:27.495Z,20.10
2018-06-10T23:06:55.793Z,20.10
2018-06-10T23:09:24.089Z,20.10
2018-06-10T23:11:51.592Z,20.10
2018-06-10T23:14:19.892Z,20.10
2018-06-10T23:16:48.163Z,19.90
2018-06-10T23:19:16.459Z,19.80
2018-06-10T23:21:45.664Z,19.80
2018-06-10T23:24:14.009Z,19.80
2018-06-10T23:26:43.103Z,19.80
2018-06-10T23:29:11.533Z,19.80
2018-06-10T23:31:39.837Z,19.80
2018-06-10T23:34:12.854Z,19.70
2018-06-10T23:36:40.855Z,19.70
2018-06-10T23:39:09.161Z,19.70
2018-06-10T23:41:37.428Z,19.80
2018-06-10T23:44:06.652Z,19.70
2018-06-10T23:46:34.969Z,19.70
2018-06-10T23:49:03.242Z,19.60
2018-06-10T23:51:31.540Z,19.60
2018-06-10T23:53:59.848Z,19.60
2018-06-10T23:56:28.129Z,19.60
2018-06-10T23:58:56.429Z,19.60
